Metar Cercanos

 

LEPA - Palma De Mallorc, Spain
Distance from station: ONO 38km
Actualización: Sun, 29-Jan-2023 2:30am CET
Few Clouds
Few Clouds
 Viento del NO
Viento: NO 2 km/h
Temperatura: 5°C
Rocío: 4°C
Humedad: 93%
Barómetro: 1020 hPa
Clouds: Few Clouds
Visibility: 10 km
Cloud details: Few Clouds 1372 m
2023/01/29 01:30 LEPA 290130Z 31001KT 9999 FEW045 05/04 Q1020 NOSIG
LEMH - Mahon/Menorca Is, Spain
Distance from station: ENE 105km
Actualización: Sun, 29-Jan-2023 2:30am CET
Lluvia débil, Showers, Thunderstorm
Lluvia débil, Showers, Thunderstorm
 Viento del NNE
Viento: NNE 39 km/h
Temperatura: 8°C
Sensación frio: 3°C
Rocío: 4°C
Humedad: 76%
Barómetro: 1019 hPa
Resumen: Lluvia débil, Showers
Clouds: Thunderstorm
Visibility: 10 km
Cloud details: Few Clouds 762 m
Parcialmente nuboso 975 m
2023/01/29 01:30 LEMH 290130Z AUTO 02021KT 9999 -SHRA FEW025/// SCT032/// ///TCU 08/04 Q1019
 
LEIB - Ibiza/Es Codola, Spain
Distance from station: OSO 165km
Actualización: Sun, 29-Jan-2023 2:30am CET
Muy nuboso
Muy nuboso
 Viento del N
Viento: N 11 km/h
Temperatura: 7°C
Sensación frio: 5°C
Rocío: 5°C
Humedad: 87%
Barómetro: 1021 hPa
Clouds: Muy nuboso
Visibility: 10 km
Cloud details: Few Clouds 305 m
Parcialmente nuboso 762 m
Muy nuboso 1372 m
2023/01/29 01:30 LEIB 290130Z 36006KT 9999 FEW010 SCT025TCU BKN045 07/05 Q1021 NOSIG
LEBL - Barcelona Airpor, Spain
Distance from station: NNO 225km
Actualización: Sun, 29-Jan-2023 2:30am CET
Muy nuboso
Muy nuboso
 Viento del NNO
Viento: NNO 6 km/h
Temperatura: 6°C
Rocío: 0°C
Humedad: 66%
Barómetro: 1022 hPa
Clouds: Muy nuboso
Visibility: 10 km
Cloud details: Muy nuboso 1219 m
2023/01/29 01:30 LEBL 290130Z 34003KT 9999 BKN040 06/M00 Q1022 NOSIG
 
LEVC - Valencia (civ/Mi, Spain
Distance from station: NO 188km
Actualización: Sun, 29-Jan-2023 2:30am CET
Parcialmente nuboso
Parcialmente nuboso
 Viento del NO
Viento: NO 11 km/h
Temperatura: 4°C
Sensación frio: 1°C
Rocío: -3°C
Humedad: 61%
Barómetro: 1022 hPa
Clouds: Parcialmente nuboso
Visibility: 10 km
Cloud details: Parcialmente nuboso 1280 m
2023/01/29 01:30 LEVC 290130Z 31006KT 9999 SCT042 04/M03 Q1022 NOSIG
LEGE - Gerona/Costa Bra, Spain
Distance from station: N 276km
Actualización: Sun, 29-Jan-2023 2:30am CET
Few Clouds
Few Clouds
 Viento del varies
Viento: varies 4 km/h
Temperatura: 2°C
Rocío: -3°C
Humedad: 70%
Barómetro: 1022 hPa
Clouds: Few Clouds
Visibility: 10 km
Cloud details: Few Clouds 2134 m
2023/01/29 01:30 LEGE 290130Z VRB02KT 9999 FEW070 02/M03 Q1022
 
LEAL - Alicante/El Alte, Spain
Distance from station: OSO 344km
Actualización: Sun, 29-Jan-2023 2:30am CET
Few Clouds
Few Clouds
 Viento del NO
Viento: NO 9 km/h
Temperatura: 5°C
Sensación frio: 3°C
Rocío: 2°C
Humedad: 81%
Barómetro: 1021 hPa
Clouds: Few Clouds
Visibility: 10 km
Cloud details: Few Clouds 1219 m
2023/01/29 01:30 LEAL 290130Z 32005KT 9999 FEW040 05/02 Q1021 NOSIG
LEAM - Almeria Airport, Spain
Distance from station: SSO 56km
Actualización: Sun, 29-Jan-2023 2:30am CET
Despejado
Despejado
 Viento del NO
Viento: NO 22 km/h
Temperatura: 7°C
Sensación frio: 4°C
Rocío: 1°C
Humedad: 66%
Barómetro: 1020 hPa
Resumen: Despejado
Visibility: greater than 10 km
2023/01/29 01:30 LEAM 290130Z AUTO 32012KT CAVOK 07/01 Q1020
 
LEZG - Zaragoza (mil/Ci, Spain
Distance from station: NO 431km
Actualización: Sun, 29-Jan-2023 2:30am CET
Despejado
Despejado
 Viento del ONO
Viento: ONO 30 km/h
Temperatura: 3°C
Sensación frio: -3°C
Rocío: -3°C
Humedad: 65%
Barómetro: 1023 hPa
Resumen: Despejado
Visibility: greater than 10 km
2023/01/29 01:30 LEZG 290130Z 30016KT CAVOK 03/M03 Q1023
LEMD - Madrid/Barajas, Spain
Distance from station: ONO 234km
Actualización: Sun, 29-Jan-2023 2:30am CET
Despejado
Despejado
 Viento del ESE
Viento: ESE 6 km/h
Temperatura: -1°C
Rocío: -6°C
Humedad: 69%
Barómetro: 1022 hPa
Resumen: Despejado
Visibility: greater than 10 km
2023/01/29 01:30 LEMD 290130Z 11003KT 060V140 CAVOK M01/M06 Q1022 NOSIG
 
LEGR - Granada Airport, Spain
Distance from station: OSO 62km
Actualización: Sun, 29-Jan-2023 2:30am CET
Despejado
Despejado
 Viento del calm
Viento: Calma
Temperatura: -3°C
Rocío: -5°C
Humedad: 86%
Barómetro: 1020 hPa
Resumen: Despejado
Visibility: greater than 10 km
2023/01/29 01:30 LEGR 290130Z AUTO 00000KT CAVOK M03/M05 Q1020
LEMG - Malaga (civ/Mil), Spain
Distance from station: OSO 227km
Actualización: Sun, 29-Jan-2023 2:30am CET
Despejado
Despejado
 Viento del ONO
Viento: ONO 15 km/h
Temperatura: 3°C
Sensación frio: -1°C
Rocío: -1°C
Humedad: 75%
Barómetro: 1021 hPa
Resumen: Despejado
Visibility: greater than 10 km
2023/01/29 01:30 LEMG 290130Z 29008KT CAVOK 03/M01 Q1021 NOSIG
 
LEZL - Sevilla (civ/Mil, Spain
Distance from station: S 318km
Actualización: Sun, 29-Jan-2023 2:30am CET
Despejado
Despejado
 Viento del varies
Viento: varies 2 km/h
Temperatura: 3°C
Rocío: 0°C
Humedad: 81%
Barómetro: 1021 hPa
Resumen: Despejado
Visibility: greater than 10 km
2023/01/29 01:30 LEZL 290130Z AUTO VRB01KT CAVOK 03/M00 Q1021
LEVT - Vitoria, Spain
Distance from station: NO 226km
Actualización: Sun, 29-Jan-2023 2:30am CET
Cubierto
Cubierto
 Viento del NNO
Viento: NNO 11 km/h
Temperatura: 2°C
Sensación frio: -1°C
Rocío: 0°C
Humedad: 87%
Barómetro: 1026 hPa
Clouds: Cubierto
Visibility: 10 km
Cloud details: Cubierto 457 m
2023/01/29 01:30 LEVT 290130Z 34006KT 300V020 9999 OVC015 02/M00 Q1026
 
LEBB - Bilbao/Sondica, Spain
Distance from station: NNO 235km
Actualización: Sun, 29-Jan-2023 2:30am CET
Cubierto
Cubierto
 Viento del E
Viento: E 4 km/h
Temperatura: 4°C
Rocío: 4°C
Humedad: 100%
Barómetro: 1029 hPa
Clouds: Cubierto
Visibility: 8 km
Cloud details: Muy nuboso 701 m
Muy nuboso 945 m
Cubierto 1768 m
2023/01/29 01:30 LEBB 290130Z AUTO 09002KT 8000 BKN023 BKN031 OVC058 04/04 Q1029
LESO - San Sebastian/Fu, Spain
Distance from station: N 231km
Actualización: Sun, 29-Jan-2023 2:30am CET
Cubierto
Cubierto
 Viento del varies
Viento: varies 2 km/h
Temperatura: 4°C
Rocío: 2°C
Humedad: 87%
Barómetro: 1029 hPa
Clouds: Cubierto
Visibility: 10 km
Cloud details: Few Clouds 975 m
Cubierto 1250 m
2023/01/29 01:30 LESO 290130Z AUTO VRB01KT 9999 FEW032 OVC041 04/02 Q1029
 
LEVD - Valladolid(Mil/C, Spain
Distance from station: ONO 239km
Actualización: Sun, 29-Jan-2023 2:30am CET
Few Clouds
Few Clouds
 Viento del NE
Viento: NE 17 km/h
Barómetro: 1024 hPa
Clouds: Few Clouds
Visibility: 10 km
Cloud details: Few Clouds 610 m
2023/01/29 01:30 LEVD 290130Z AUTO 04009KT 9999 FEW020 ///// Q1024
LESA - Salamanca (civ/M, Spain
Distance from station: ONO 349km
Actualización: Sun, 29-Jan-2023 2:30am CET
Muy nuboso
Muy nuboso
 Viento del E
Viento: E 6 km/h
Temperatura: -2°C
Rocío: -3°C
Humedad: 93%
Barómetro: 1024 hPa
Clouds: Muy nuboso
Visibility: 10 km
Cloud details: Muy nuboso 1311 m
2023/01/29 01:30 LESA 290130Z AUTO 10003KT 070V130 9999 BKN043 M02/M03 Q1024
 
LEXJ - Santander/Paraya, Spain
Distance from station: NNO 247km
Actualización: Sun, 29-Jan-2023 2:30am CET
Lluvia débil, Muy nuboso
Lluvia débil, Muy nuboso
 Viento del SO
Viento: SO 9 km/h
Temperatura: 5°C
Sensación frio: 3°C
Rocío: 4°C
Humedad: 93%
Barómetro: 1029 hPa
Resumen: Lluvia débil
Clouds: Muy nuboso
Visibility: 10 km
Cloud details: Parcialmente nuboso 1036 m
Parcialmente nuboso 1250 m
Muy nuboso 1494 m
2023/01/29 01:30 LEXJ 290130Z AUTO 23005KT 9999 -RA SCT034 SCT041 BKN049 05/04 Q1029
LEAS - Asturias/Aviles, Spain
Distance from station: NO 214km
Actualización: Sun, 29-Jan-2023 2:30am CET
Muy nuboso
Muy nuboso
 Viento del varies
Viento: varies 4 km/h
Temperatura: 4°C
Rocío: 3°C
Humedad: 93%
Barómetro: 1029 hPa
Clouds: Muy nuboso
Visibility: 10 km
Cloud details: Few Clouds 1280 m
Muy nuboso 1524 m
2023/01/29 01:30 LEAS 290130Z AUTO VRB02KT 9999 FEW042 BKN050 04/03 Q1029
 
LECO - La Coruna/Alvedr, Spain
Distance from station: ONO 222km
Actualización: Sun, 29-Jan-2023 2:30am CET
Muy nuboso
Muy nuboso
 Viento del varies
Viento: varies 2 km/h
Temperatura: 6°C
Rocío: 2°C
Humedad: 76%
Barómetro: 1029 hPa
Clouds: Muy nuboso
Visibility: 10 km
Cloud details: Parcialmente nuboso 1128 m
Muy nuboso 1372 m
2023/01/29 01:30 LECO 290130Z AUTO VRB01KT 9999 SCT037 BKN045 06/02 Q1029
LEVX - Vigo/Peinador, Spain
Distance from station: O 214km
Actualización: Sun, 29-Jan-2023 2:30am CET
Despejado
Despejado
 Viento del NE
Viento: NE 9 km/h
Temperatura: 4°C
Sensación frio: 2°C
Rocío: -1°C
Humedad: 70%
Barómetro: 1026 hPa
Resumen: Despejado
Visibility: greater than 10 km
2023/01/29 01:30 LEVX 290130Z 05005KT 020V080 CAVOK 04/M01 Q1026 NOSIG